createdAt,value
2019-03-06T00:01:57.594Z,1.86
2019-03-06T00:07:01.646Z,1.79
2019-03-06T00:12:05.695Z,1.79
2019-03-06T00:17:10.013Z,1.86
2019-03-06T00:22:14.117Z,1.94
2019-03-06T00:27:18.197Z,1.93
2019-03-06T00:32:22.211Z,1.99
2019-03-06T00:37:26.276Z,2.12
2019-03-06T00:42:30.301Z,2.19
2019-03-06T00:47:34.414Z,2.12
2019-03-06T00:52:38.796Z,2.07
2019-03-06T00:57:42.908Z,1.84
2019-03-06T01:02:46.979Z,1.68
2019-03-06T01:07:51.885Z,1.56
2019-03-06T01:12:55.896Z,1.51
2019-03-06T01:18:00.237Z,1.65
2019-03-06T01:23:04.377Z,1.65
2019-03-06T01:28:08.474Z,1.63
2019-03-06T01:33:14.395Z,1.65
2019-03-06T01:38:18.689Z,1.69
2019-03-06T01:43:22.768Z,1.58
2019-03-06T01:48:26.862Z,1.44
2019-03-06T01:53:30.896Z,1.31
2019-03-06T01:58:34.918Z,1.18
2019-03-06T02:03:39.141Z,1.04
2019-03-06T02:08:43.158Z,0.91
2019-03-06T02:13:47.213Z,0.81
2019-03-06T02:18:51.333Z,0.77
2019-03-06T02:23:55.735Z,0.63
2019-03-06T02:28:59.781Z,0.63
2019-03-06T02:34:03.909Z,0.65
2019-03-06T02:39:08.090Z,0.39
2019-03-06T02:44:12.109Z,0.12
2019-03-06T02:49:16.156Z,-0.06
2019-03-06T02:54:20.219Z,-0.28
2019-03-06T02:59:24.340Z,-0.46
2019-03-06T03:04:28.367Z,-0.51
2019-03-06T03:09:32.448Z,-0.60
2019-03-06T03:14:36.479Z,-0.72
2019-03-06T03:19:40.497Z,-0.89
2019-03-06T03:24:44.561Z,-0.98
2019-03-06T03:29:48.909Z,-1.00
2019-03-06T03:34:53.248Z,-1.07
2019-03-06T03:39:57.282Z,-1.13
2019-03-06T03:45:01.292Z,-1.09
2019-03-06T03:50:05.755Z,-1.11
2019-03-06T03:55:10.113Z,-1.00
2019-03-06T04:00:14.330Z,-0.87
2019-03-06T04:05:18.360Z,-1.00
2019-03-06T04:10:22.392Z,-1.04
2019-03-06T04:15:26.424Z,-1.08
2019-03-06T04:20:30.468Z,-1.17
2019-03-06T04:25:34.559Z,-1.20
2019-03-06T04:30:38.676Z,-1.19
2019-03-06T04:35:42.770Z,-1.18
2019-03-06T04:40:46.832Z,-1.16
2019-03-06T04:45:50.920Z,-1.18
2019-03-06T04:50:55.060Z,-1.28
2019-03-06T04:55:59.116Z,-1.43
2019-03-06T05:01:03.153Z,-1.47
2019-03-06T05:06:07.231Z,-1.52
2019-03-06T05:11:11.325Z,-1.38
2019-03-06T05:16:15.649Z,-1.24
2019-03-06T05:21:19.976Z,-0.91
2019-03-06T05:26:24.087Z,-0.72
2019-03-06T05:31:28.459Z,-0.62
2019-03-06T05:37:23.470Z,-0.53
2019-03-06T05:42:27.513Z,-0.47
2019-03-06T05:47:31.600Z,-0.49
2019-03-06T05:52:35.693Z,-0.45
2019-03-06T05:57:39.693Z,-0.22
2019-03-06T06:02:43.830Z,0.07
2019-03-06T06:07:47.912Z,0.07
2019-03-06T06:12:52.040Z,0.16
2019-03-06T06:17:57.082Z,0.24
2019-03-06T06:23:01.203Z,0.32
2019-03-06T06:28:07.023Z,0.48
2019-03-06T06:33:11.026Z,0.46
2019-03-06T06:38:15.031Z,0.62
2019-03-06T06:43:19.470Z,0.76
2019-03-06T06:48:24.417Z,0.89
2019-03-06T06:53:52.439Z,1.06
2019-03-06T06:59:29.289Z,1.20
2019-03-06T07:04:58.165Z,1.36
2019-03-06T07:10:02.204Z,1.47
2019-03-06T07:15:06.900Z,1.60
2019-03-06T07:20:11.068Z,1.72
2019-03-06T07:25:15.289Z,1.95
2019-03-06T07:30:19.584Z,2.17
2019-03-06T07:35:48.630Z,2.64
2019-03-06T07:40:52.663Z,3.22
2019-03-06T07:45:56.705Z,3.37
2019-03-06T07:51:00.760Z,3.29
2019-03-06T07:56:04.819Z,3.40
2019-03-06T08:01:16.801Z,3.53
2019-03-06T08:06:14.781Z,3.72
2019-03-06T08:11:18.919Z,3.89
2019-03-06T08:16:22.931Z,4.15
2019-03-06T08:21:26.998Z,4.51
2019-03-06T08:26:31.048Z,5.24
2019-03-06T08:31:35.056Z,5.76
2019-03-06T08:36:39.071Z,5.97
2019-03-06T08:41:43.638Z,6.07
2019-03-06T08:46:47.657Z,5.98
2019-03-06T08:51:51.720Z,6.37
2019-03-06T08:56:56.074Z,6.48
2019-03-06T09:02:01.200Z,6.45
2019-03-06T09:07:05.472Z,6.61
2019-03-06T09:12:10.159Z,6.61
2019-03-06T09:17:14.313Z,6.89
2019-03-06T09:22:18.338Z,6.96
2019-03-06T09:27:22.644Z,7.33
2019-03-06T09:32:26.819Z,7.67
2019-03-06T09:37:30.858Z,7.92
2019-03-06T09:42:34.993Z,8.07
2019-03-06T09:47:39.671Z,8.39
2019-03-06T09:52:44.113Z,8.72
2019-03-06T09:57:51.321Z,8.84
2019-03-06T10:02:56.147Z,9.14
2019-03-06T10:08:00.810Z,9.14
2019-03-06T10:13:05.611Z,9.74
2019-03-06T10:18:10.372Z,11.17
2019-03-06T10:23:15.068Z,11.99
2019-03-06T10:28:27.489Z,12.29
2019-03-06T10:33:25.466Z,12.92
2019-03-06T10:38:31.155Z,12.58
2019-03-06T10:43:35.373Z,12.37
2019-03-06T10:48:39.438Z,12.25
2019-03-06T10:53:43.676Z,12.42
2019-03-06T10:58:48.050Z,12.26
2019-03-06T11:03:52.170Z,12.14
2019-03-06T11:08:57.159Z,12.22
2019-03-06T11:14:11.923Z,12.78
2019-03-06T11:19:16.398Z,12.62
2019-03-06T11:24:20.651Z,12.48
2019-03-06T11:29:25.391Z,12.30
2019-03-06T11:34:30.773Z,12.23
2019-03-06T11:39:45.149Z,12.27
2019-03-06T11:44:49.575Z,12.60
2019-03-06T11:49:54.199Z,13.18
2019-03-06T11:55:06.179Z,13.73
2019-03-06T12:00:09.990Z,13.31
2019-03-06T12:05:14.389Z,12.70
2019-03-06T12:10:19.612Z,12.63
2019-03-06T12:15:23.599Z,13.01
2019-03-06T12:20:27.636Z,13.24
2019-03-06T12:25:31.961Z,13.88
2019-03-06T12:30:37.359Z,13.56
2019-03-06T12:35:41.385Z,14.34
2019-03-06T12:40:45.389Z,13.89
2019-03-06T12:46:08.934Z,14.01
2019-03-06T12:51:12.934Z,14.14
2019-03-06T12:56:18.114Z,13.71
2019-03-06T13:01:22.192Z,14.14
2019-03-06T13:06:26.237Z,14.32
2019-03-06T13:11:30.255Z,14.30
2019-03-06T13:16:34.349Z,14.19
2019-03-06T13:21:38.533Z,14.18
2019-03-06T13:26:42.610Z,13.83
2019-03-06T13:31:46.644Z,14.31
2019-03-06T13:36:50.653Z,14.11
2019-03-06T13:41:55.125Z,13.41
2019-03-06T13:46:59.235Z,13.26
2019-03-06T13:52:04.309Z,12.95
2019-03-06T13:57:08.964Z,12.76
2019-03-06T14:02:14.221Z,12.89
2019-03-06T14:07:20.547Z,12.69
2019-03-06T14:12:26.721Z,12.74
2019-03-06T14:17:34.076Z,12.75
2019-03-06T14:22:40.726Z,12.89
2019-03-06T14:27:47.190Z,12.87
2019-03-06T14:32:53.600Z,12.93
2019-03-06T14:37:57.679Z,12.78
2019-03-06T14:43:04.029Z,12.69
2019-03-06T14:48:10.084Z,12.66
2019-03-06T14:53:18.061Z,12.48
2019-03-06T14:58:22.392Z,12.39
2019-03-06T15:03:28.321Z,12.28
2019-03-06T15:08:35.087Z,12.34
2019-03-06T15:13:42.235Z,12.40
2019-03-06T15:18:48.266Z,12.37
2019-03-06T15:23:52.973Z,12.33
2019-03-06T15:28:58.580Z,12.41
2019-03-06T15:34:04.609Z,12.24
2019-03-06T15:39:42.599Z,12.11
2019-03-06T15:44:41.446Z,11.91
2019-03-06T15:49:47.852Z,11.71
2019-03-06T15:54:53.675Z,11.52
2019-03-06T16:00:00.007Z,11.51
2019-03-06T16:05:07.516Z,11.29
2019-03-06T16:10:12.208Z,11.20
2019-03-06T16:15:16.450Z,11.12
2019-03-06T16:20:21.631Z,11.04
2019-03-06T16:25:36.050Z,10.96
2019-03-06T16:30:32.414Z,10.84
2019-03-06T16:35:36.614Z,10.77
2019-03-06T16:40:41.477Z,10.75
2019-03-06T16:45:46.142Z,10.56
2019-03-06T16:50:50.320Z,10.49
2019-03-06T16:55:54.727Z,10.32
2019-03-06T17:00:59.018Z,10.19
2019-03-06T17:06:03.650Z,10.19
2019-03-06T17:11:09.569Z,9.99
2019-03-06T17:16:14.529Z,10.00
2019-03-06T17:21:18.995Z,9.82
2019-03-06T17:26:23.524Z,9.64
2019-03-06T17:31:27.866Z,9.53
2019-03-06T17:36:31.874Z,9.53
2019-03-06T17:41:36.139Z,9.57
2019-03-06T17:46:40.369Z,9.61
2019-03-06T17:51:44.979Z,9.47
2019-03-06T17:56:49.273Z,9.27
2019-03-06T18:01:53.325Z,9.16
2019-03-06T18:06:57.381Z,9.32
2019-03-06T18:12:01.404Z,9.32
2019-03-06T18:17:05.494Z,9.23
2019-03-06T18:22:09.943Z,9.23
2019-03-06T18:27:14.269Z,9.26
2019-03-06T18:32:18.431Z,9.34
2019-03-06T18:37:22.787Z,9.41
2019-03-06T18:42:26.886Z,9.31
2019-03-06T18:47:30.973Z,9.21
2019-03-06T18:52:35.233Z,9.21
2019-03-06T18:57:39.315Z,9.25
2019-03-06T19:02:43.330Z,9.25
2019-03-06T19:07:49.280Z,9.29
2019-03-06T19:12:53.983Z,9.32
2019-03-06T19:17:58.120Z,9.32
2019-03-06T19:23:04.293Z,9.18
2019-03-06T19:28:11.876Z,9.18
2019-03-06T19:33:18.079Z,9.18
2019-03-06T19:38:24.112Z,9.10
2019-03-06T19:43:40.642Z,9.03
2019-03-06T19:48:47.426Z,9.17
2019-03-06T19:53:53.318Z,9.17
2019-03-06T19:58:59.510Z,9.27
2019-03-06T20:04:05.872Z,9.40
2019-03-06T20:09:27.387Z,9.43
2019-03-06T20:14:34.790Z,9.40
2019-03-06T20:19:42.129Z,9.49
2019-03-06T20:24:52.129Z,9.53
2019-03-06T20:30:01.003Z,9.62
2019-03-06T20:35:07.474Z,9.70
2019-03-06T20:40:18.283Z,9.69
2019-03-06T20:45:28.677Z,9.70
2019-03-06T20:50:35.829Z,9.79
2019-03-06T20:55:39.968Z,9.77
2019-03-06T21:00:45.800Z,9.72
2019-03-06T21:05:50.868Z,9.67
2019-03-06T21:11:24.342Z,9.86
2019-03-06T21:16:33.699Z,9.96
2019-03-06T21:21:42.824Z,9.93
2019-03-06T21:26:51.191Z,9.93
2019-03-06T21:31:58.348Z,9.90
2019-03-06T21:37:02.994Z,9.94
2019-03-06T21:42:07.162Z,9.75
2019-03-06T21:47:11.559Z,9.80
2019-03-06T21:52:15.966Z,9.68
2019-03-06T21:57:20.095Z,9.64
2019-03-06T22:02:24.329Z,9.66
2019-03-06T22:07:28.913Z,9.66
2019-03-06T22:12:33.404Z,9.68
2019-03-06T22:17:38.656Z,9.60
2019-03-06T22:22:42.779Z,9.71
2019-03-06T22:27:46.828Z,9.71
2019-03-06T22:32:50.875Z,9.77
2019-03-06T22:37:57.278Z,9.79
2019-03-06T22:43:00.944Z,9.76
2019-03-06T22:48:05.264Z,9.77
2019-03-06T22:53:09.627Z,9.70
2019-03-06T22:58:13.664Z,9.69
2019-03-06T23:03:19.056Z,9.70
2019-03-06T23:08:23.137Z,9.81
2019-03-06T23:13:27.254Z,9.80
2019-03-06T23:18:31.676Z,9.57
2019-03-06T23:23:36.134Z,9.70
2019-03-06T23:28:40.153Z,9.92
2019-03-06T23:33:44.503Z,9.70
2019-03-06T23:38:48.830Z,9.49
2019-03-06T23:43:52.834Z,9.38
2019-03-06T23:48:56.932Z,9.38
2019-03-06T23:54:01.041Z,9.36
2019-03-06T23:59:05.104Z,9.37
